sensor_id;sensor_type;location;lat;lon;timestamp;temperature;humidity
13892;DHT22;7016;48.172;8.058;2023-12-07T00:00:06;3.50;99.90
13892;DHT22;7016;48.172;8.058;2023-12-07T00:02:32;3.60;99.90
13892;DHT22;7016;48.172;8.058;2023-12-07T00:04:57;3.60;99.90
13892;DHT22;7016;48.172;8.058;2023-12-07T00:07:23;3.60;99.90
13892;DHT22;7016;48.172;8.058;2023-12-07T00:09:49;3.70;99.90
13892;DHT22;7016;48.172;8.058;2023-12-07T00:12:14;3.70;99.90
13892;DHT22;7016;48.172;8.058;2023-12-07T00:14:40;3.70;99.90
13892;DHT22;7016;48.172;8.058;2023-12-07T00:17:06;3.70;99.90
13892;DHT22;7016;48.172;8.058;2023-12-07T00:19:31;3.70;99.90
13892;DHT22;7016;48.172;8.058;2023-12-07T00:21:57;3.50;99.90
13892;DHT22;7016;48.172;8.058;2023-12-07T00:24:23;3.60;99.90
13892;DHT22;7016;48.172;8.058;2023-12-07T00:26:48;3.50;99.90
13892;DHT22;7016;48.172;8.058;2023-12-07T00:29:15;3.50;99.90
13892;DHT22;7016;48.172;8.058;2023-12-07T00:31:40;3.60;99.90
13892;DHT22;7016;48.172;8.058;2023-12-07T00:34:06;3.70;99.90
13892;DHT22;7016;48.172;8.058;2023-12-07T00:36:32;3.70;99.90
13892;DHT22;7016;48.172;8.058;2023-12-07T00:38:58;3.70;99.90
13892;DHT22;7016;48.172;8.058;2023-12-07T00:41:23;3.60;99.90
13892;DHT22;7016;48.172;8.058;2023-12-07T00:43:49;3.40;99.90
13892;DHT22;7016;48.172;8.058;2023-12-07T00:46:14;3.40;99.90
13892;DHT22;7016;48.172;8.058;2023-12-07T00:48:40;3.50;99.90
13892;DHT22;7016;48.172;8.058;2023-12-07T00:51:06;3.50;99.90
13892;DHT22;7016;48.172;8.058;2023-12-07T00:53:32;3.50;99.90
13892;DHT22;7016;48.172;8.058;2023-12-07T00:55:58;3.40;99.90
13892;DHT22;7016;48.172;8.058;2023-12-07T00:58:23;3.30;99.90
13892;DHT22;7016;48.172;8.058;2023-12-07T01:00:49;3.30;99.90
13892;DHT22;7016;48.172;8.058;2023-12-07T01:03:14;3.30;99.90
13892;DHT22;7016;48.172;8.058;2023-12-07T01:05:40;3.40;99.90
13892;DHT22;7016;48.172;8.058;2023-12-07T01:08:06;3.40;99.90
13892;DHT22;7016;48.172;8.058;2023-12-07T01:10:31;3.40;99.90
13892;DHT22;7016;48.172;8.058;2023-12-07T01:12:57;3.50;99.90
13892;DHT22;7016;48.172;8.058;2023-12-07T01:15:23;3.50;99.90
13892;DHT22;7016;48.172;8.058;2023-12-07T01:17:49;3.50;99.90
13892;DHT22;7016;48.172;8.058;2023-12-07T01:20:14;3.60;99.90
13892;DHT22;7016;48.172;8.058;2023-12-07T01:22:40;3.40;99.90
13892;DHT22;7016;48.172;8.058;2023-12-07T01:25:07;3.40;99.90
13892;DHT22;7016;48.172;8.058;2023-12-07T01:27:33;3.40;99.90
13892;DHT22;7016;48.172;8.058;2023-12-07T01:29:59;3.30;99.90
13892;DHT22;7016;48.172;8.058;2023-12-07T01:32:24;3.30;99.90
13892;DHT22;7016;48.172;8.058;2023-12-07T01:34:50;3.30;99.90
13892;DHT22;7016;48.172;8.058;2023-12-07T01:37:16;3.30;99.90
13892;DHT22;7016;48.172;8.058;2023-12-07T01:39:41;3.40;99.90
13892;DHT22;7016;48.172;8.058;2023-12-07T01:42:08;3.30;99.90
13892;DHT22;7016;48.172;8.058;2023-12-07T01:44:34;3.30;99.90
13892;DHT22;7016;48.172;8.058;2023-12-07T01:47:00;3.30;99.90
13892;DHT22;7016;48.172;8.058;2023-12-07T01:49:27;3.20;99.90
13892;DHT22;7016;48.172;8.058;2023-12-07T01:51:53;3.20;99.90
13892;DHT22;7016;48.172;8.058;2023-12-07T01:54:19;3.20;99.90
13892;DHT22;7016;48.172;8.058;2023-12-07T01:56:45;3.20;99.90
13892;DHT22;7016;48.172;8.058;2023-12-07T01:59:11;3.20;99.90
13892;DHT22;7016;48.172;8.058;2023-12-07T02:01:37;3.10;99.90
13892;DHT22;7016;48.172;8.058;2023-12-07T02:04:03;3.10;99.90
13892;DHT22;7016;48.172;8.058;2023-12-07T02:06:29;3.10;99.90
13892;DHT22;7016;48.172;8.058;2023-12-07T02:08:55;3.10;99.90
13892;DHT22;7016;48.172;8.058;2023-12-07T02:11:22;3.10;99.90
13892;DHT22;7016;48.172;8.058;2023-12-07T02:13:48;3.10;99.90
13892;DHT22;7016;48.172;8.058;2023-12-07T02:16:19;3.10;99.90
13892;DHT22;7016;48.172;8.058;2023-12-07T02:21:40;3.10;99.90
13892;DHT22;7016;48.172;8.058;2023-12-07T02:24:11;3.10;99.90
13892;DHT22;7016;48.172;8.058;2023-12-07T02:26:36;3.10;99.90
13892;DHT22;7016;48.172;8.058;2023-12-07T02:29:03;3.00;99.90
13892;DHT22;7016;48.172;8.058;2023-12-07T02:31:29;2.90;99.90
13892;DHT22;7016;48.172;8.058;2023-12-07T02:33:56;3.00;99.90
13892;DHT22;7016;48.172;8.058;2023-12-07T02:36:24;2.90;99.90
13892;DHT22;7016;48.172;8.058;2023-12-07T02:38:56;2.90;99.90
13892;DHT22;7016;48.172;8.058;2023-12-07T02:41:22;2.90;99.90
13892;DHT22;7016;48.172;8.058;2023-12-07T02:43:49;2.90;99.90
13892;DHT22;7016;48.172;8.058;2023-12-07T02:46:14;2.90;99.90
13892;DHT22;7016;48.172;8.058;2023-12-07T02:48:40;2.90;99.90
13892;DHT22;7016;48.172;8.058;2023-12-07T02:51:06;2.90;99.90
13892;DHT22;7016;48.172;8.058;2023-12-07T02:53:32;2.90;99.90
13892;DHT22;7016;48.172;8.058;2023-12-07T02:55:57;2.80;99.90
13892;DHT22;7016;48.172;8.058;2023-12-07T02:58:23;2.80;99.90
13892;DHT22;7016;48.172;8.058;2023-12-07T03:00:49;2.90;99.90
13892;DHT22;7016;48.172;8.058;2023-12-07T03:03:15;2.90;99.90
13892;DHT22;7016;48.172;8.058;2023-12-07T03:05:40;2.90;99.90
13892;DHT22;7016;48.172;8.058;2023-12-07T03:08:06;2.90;99.90
13892;DHT22;7016;48.172;8.058;2023-12-07T03:10:32;2.80;99.90
13892;DHT22;7016;48.172;8.058;2023-12-07T03:12:57;2.80;99.90
13892;DHT22;7016;48.172;8.058;2023-12-07T03:15:23;2.80;99.90
13892;DHT22;7016;48.172;8.058;2023-12-07T03:17:49;2.80;99.90
13892;DHT22;7016;48.172;8.058;2023-12-07T03:20:15;2.90;99.90
13892;DHT22;7016;48.172;8.058;2023-12-07T03:22:41;2.80;99.90
13892;DHT22;7016;48.172;8.058;2023-12-07T03:25:07;2.80;99.90
13892;DHT22;7016;48.172;8.058;2023-12-07T03:27:32;2.80;99.90
13892;DHT22;7016;48.172;8.058;2023-12-07T03:30:01;2.80;99.90
13892;DHT22;7016;48.172;8.058;2023-12-07T03:32:27;2.80;99.90
13892;DHT22;7016;48.172;8.058;2023-12-07T03:34:53;2.80;99.90
13892;DHT22;7016;48.172;8.058;2023-12-07T03:37:18;2.70;99.90
13892;DHT22;7016;48.172;8.058;2023-12-07T03:39:44;2.70;99.90
13892;DHT22;7016;48.172;8.058;2023-12-07T03:42:10;2.50;99.90
13892;DHT22;7016;48.172;8.058;2023-12-07T03:44:35;2.50;99.90
13892;DHT22;7016;48.172;8.058;2023-12-07T03:47:01;2.50;99.90
13892;DHT22;7016;48.172;8.058;2023-12-07T03:49:27;2.50;99.90
13892;DHT22;7016;48.172;8.058;2023-12-07T03:51:54;2.40;99.90
13892;DHT22;7016;48.172;8.058;2023-12-07T03:54:20;2.50;99.90
13892;DHT22;7016;48.172;8.058;2023-12-07T03:56:45;2.50;99.90
13892;DHT22;7016;48.172;8.058;2023-12-07T03:59:11;2.50;99.90
13892;DHT22;7016;48.172;8.058;2023-12-07T04:01:37;2.50;99.90
13892;DHT22;7016;48.172;8.058;2023-12-07T04:04:02;2.40;99.90
13892;DHT22;7016;48.172;8.058;2023-12-07T04:06:28;2.40;99.90
13892;DHT22;7016;48.172;8.058;2023-12-07T04:08:54;2.40;99.90
13892;DHT22;7016;48.172;8.058;2023-12-07T04:11:19;2.40;99.90
13892;DHT22;7016;48.172;8.058;2023-12-07T04:13:47;2.30;99.90
13892;DHT22;7016;48.172;8.058;2023-12-07T04:16:12;2.30;99.90
13892;DHT22;7016;48.172;8.058;2023-12-07T04:18:38;2.20;99.90
13892;DHT22;7016;48.172;8.058;2023-12-07T04:21:04;2.20;99.90
13892;DHT22;7016;48.172;8.058;2023-12-07T04:23:31;2.20;99.90
13892;DHT22;7016;48.172;8.058;2023-12-07T04:25:57;2.30;99.90
13892;DHT22;7016;48.172;8.058;2023-12-07T04:28:23;2.30;99.90
13892;DHT22;7016;48.172;8.058;2023-12-07T04:30:49;2.10;99.90
13892;DHT22;7016;48.172;8.058;2023-12-07T04:33:14;2.00;99.90
13892;DHT22;7016;48.172;8.058;2023-12-07T04:35:40;2.00;99.90
13892;DHT22;7016;48.172;8.058;2023-12-07T04:38:06;2.10;99.90
13892;DHT22;7016;48.172;8.058;2023-12-07T04:40:31;2.00;99.90
13892;DHT22;7016;48.172;8.058;2023-12-07T04:42:58;2.00;99.90
13892;DHT22;7016;48.172;8.058;2023-12-07T04:45:24;2.00;99.90
13892;DHT22;7016;48.172;8.058;2023-12-07T04:47:50;2.00;99.90
13892;DHT22;7016;48.172;8.058;2023-12-07T04:50:15;2.10;99.90
13892;DHT22;7016;48.172;8.058;2023-12-07T04:52:41;2.10;99.90
13892;DHT22;7016;48.172;8.058;2023-12-07T04:55:07;1.90;99.90
13892;DHT22;7016;48.172;8.058;2023-12-07T04:57:36;1.90;99.90
13892;DHT22;7016;48.172;8.058;2023-12-07T05:00:05;1.90;99.90
13892;DHT22;7016;48.172;8.058;2023-12-07T05:02:36;2.00;99.90
13892;DHT22;7016;48.172;8.058;2023-12-07T05:05:02;1.90;99.90
13892;DHT22;7016;48.172;8.058;2023-12-07T05:07:27;1.70;99.90
13892;DHT22;7016;48.172;8.058;2023-12-07T05:09:53;1.70;99.90
13892;DHT22;7016;48.172;8.058;2023-12-07T05:12:19;1.80;99.90
13892;DHT22;7016;48.172;8.058;2023-12-07T05:14:44;1.70;99.90
13892;DHT22;7016;48.172;8.058;2023-12-07T05:17:10;1.60;99.90
13892;DHT22;7016;48.172;8.058;2023-12-07T05:19:36;1.50;99.90
13892;DHT22;7016;48.172;8.058;2023-12-07T05:22:02;1.50;99.90
13892;DHT22;7016;48.172;8.058;2023-12-07T05:24:28;1.50;99.90
13892;DHT22;7016;48.172;8.058;2023-12-07T05:26:54;1.60;99.90
13892;DHT22;7016;48.172;8.058;2023-12-07T05:29:19;1.60;99.90
13892;DHT22;7016;48.172;8.058;2023-12-07T05:31:47;1.50;99.90
13892;DHT22;7016;48.172;8.058;2023-12-07T05:34:13;1.40;99.90
13892;DHT22;7016;48.172;8.058;2023-12-07T05:36:39;1.30;99.90
13892;DHT22;7016;48.172;8.058;2023-12-07T05:39:04;1.30;99.90
13892;DHT22;7016;48.172;8.058;2023-12-07T05:41:33;1.30;99.90
13892;DHT22;7016;48.172;8.058;2023-12-07T05:43:59;1.10;99.90
13892;DHT22;7016;48.172;8.058;2023-12-07T05:46:24;1.20;99.90
13892;DHT22;7016;48.172;8.058;2023-12-07T05:48:50;1.20;99.90
13892;DHT22;7016;48.172;8.058;2023-12-07T05:51:17;1.20;99.90
13892;DHT22;7016;48.172;8.058;2023-12-07T05:53:43;1.20;99.90
13892;DHT22;7016;48.172;8.058;2023-12-07T05:56:10;1.20;99.90
13892;DHT22;7016;48.172;8.058;2023-12-07T05:58:35;1.20;99.90
13892;DHT22;7016;48.172;8.058;2023-12-07T06:01:01;1.30;99.90
13892;DHT22;7016;48.172;8.058;2023-12-07T06:03:28;1.30;99.90
13892;DHT22;7016;48.172;8.058;2023-12-07T06:05:53;1.20;99.90
13892;DHT22;7016;48.172;8.058;2023-12-07T06:08:19;1.10;99.90
13892;DHT22;7016;48.172;8.058;2023-12-07T06:10:45;1.00;99.90
13892;DHT22;7016;48.172;8.058;2023-12-07T06:13:13;0.90;99.90
13892;DHT22;7016;48.172;8.058;2023-12-07T06:15:39;1.00;99.90
13892;DHT22;7016;48.172;8.058;2023-12-07T06:18:05;0.90;99.90
13892;DHT22;7016;48.172;8.058;2023-12-07T06:20:31;1.00;99.90
13892;DHT22;7016;48.172;8.058;2023-12-07T06:23:17;1.00;99.90
13892;DHT22;7016;48.172;8.058;2023-12-07T06:25:50;1.00;99.90
13892;DHT22;7016;48.172;8.058;2023-12-07T06:28:16;0.90;99.90
13892;DHT22;7016;48.172;8.058;2023-12-07T06:30:41;0.90;99.90
13892;DHT22;7016;48.172;8.058;2023-12-07T06:33:15;1.00;99.90
13892;DHT22;7016;48.172;8.058;2023-12-07T06:35:46;0.90;99.90
13892;DHT22;7016;48.172;8.058;2023-12-07T06:38:12;0.90;99.90
13892;DHT22;7016;48.172;8.058;2023-12-07T06:40:38;0.80;99.90
13892;DHT22;7016;48.172;8.058;2023-12-07T06:43:03;0.80;99.90
13892;DHT22;7016;48.172;8.058;2023-12-07T06:45:29;0.90;99.90
13892;DHT22;7016;48.172;8.058;2023-12-07T06:47:54;1.00;99.90
13892;DHT22;7016;48.172;8.058;2023-12-07T06:50:20;0.90;99.90
13892;DHT22;7016;48.172;8.058;2023-12-07T06:52:46;0.90;99.90
13892;DHT22;7016;48.172;8.058;2023-12-07T06:55:12;0.90;99.90
13892;DHT22;7016;48.172;8.058;2023-12-07T06:57:40;0.90;99.90
13892;DHT22;7016;48.172;8.058;2023-12-07T07:00:06;0.90;99.90
13892;DHT22;7016;48.172;8.058;2023-12-07T07:02:37;0.90;99.90
13892;DHT22;7016;48.172;8.058;2023-12-07T07:05:03;0.80;99.90
13892;DHT22;7016;48.172;8.058;2023-12-07T07:07:29;0.80;99.90
13892;DHT22;7016;48.172;8.058;2023-12-07T07:09:56;0.90;99.90
13892;DHT22;7016;48.172;8.058;2023-12-07T07:12:23;0.80;99.90
13892;DHT22;7016;48.172;8.058;2023-12-07T07:14:48;0.80;99.90
13892;DHT22;7016;48.172;8.058;2023-12-07T07:17:14;0.70;99.90
13892;DHT22;7016;48.172;8.058;2023-12-07T07:19:41;0.60;99.90
13892;DHT22;7016;48.172;8.058;2023-12-07T07:22:07;0.70;99.90
13892;DHT22;7016;48.172;8.058;2023-12-07T07:24:34;0.60;99.90
13892;DHT22;7016;48.172;8.058;2023-12-07T07:27:00;0.60;99.90
13892;DHT22;7016;48.172;8.058;2023-12-07T07:29:26;0.60;99.90
13892;DHT22;7016;48.172;8.058;2023-12-07T07:31:53;0.70;99.90
13892;DHT22;7016;48.172;8.058;2023-12-07T07:34:18;0.80;99.90
13892;DHT22;7016;48.172;8.058;2023-12-07T07:36:44;0.30;99.90
13892;DHT22;7016;48.172;8.058;2023-12-07T07:39:10;0.70;99.90
13892;DHT22;7016;48.172;8.058;2023-12-07T07:41:36;0.70;99.90
13892;DHT22;7016;48.172;8.058;2023-12-07T07:44:02;0.70;99.90
13892;DHT22;7016;48.172;8.058;2023-12-07T07:46:28;0.90;99.90
13892;DHT22;7016;48.172;8.058;2023-12-07T07:48:54;0.90;99.90
13892;DHT22;7016;48.172;8.058;2023-12-07T07:51:19;0.90;99.90
13892;DHT22;7016;48.172;8.058;2023-12-07T07:53:45;1.00;99.90
13892;DHT22;7016;48.172;8.058;2023-12-07T07:56:10;0.80;99.90
13892;DHT22;7016;48.172;8.058;2023-12-07T07:58:36;0.70;99.90
13892;DHT22;7016;48.172;8.058;2023-12-07T08:01:02;0.60;99.90
13892;DHT22;7016;48.172;8.058;2023-12-07T08:03:28;0.60;99.90
13892;DHT22;7016;48.172;8.058;2023-12-07T08:05:54;0.60;99.90
13892;DHT22;7016;48.172;8.058;2023-12-07T08:08:20;0.70;99.90
13892;DHT22;7016;48.172;8.058;2023-12-07T08:10:45;0.90;99.90
13892;DHT22;7016;48.172;8.058;2023-12-07T08:13:11;1.00;99.90
13892;DHT22;7016;48.172;8.058;2023-12-07T08:15:37;1.10;99.90
13892;DHT22;7016;48.172;8.058;2023-12-07T08:18:02;1.10;99.90
13892;DHT22;7016;48.172;8.058;2023-12-07T08:20:28;1.10;99.90
13892;DHT22;7016;48.172;8.058;2023-12-07T08:22:54;1.20;99.90
13892;DHT22;7016;48.172;8.058;2023-12-07T08:25:19;1.30;99.90
13892;DHT22;7016;48.172;8.058;2023-12-07T08:27:46;1.20;99.90
13892;DHT22;7016;48.172;8.058;2023-12-07T08:30:13;1.20;99.90
13892;DHT22;7016;48.172;8.058;2023-12-07T08:32:39;1.20;99.90
13892;DHT22;7016;48.172;8.058;2023-12-07T08:35:06;1.40;99.90
13892;DHT22;7016;48.172;8.058;2023-12-07T08:37:37;1.30;99.90
13892;DHT22;7016;48.172;8.058;2023-12-07T08:40:03;1.40;99.90
13892;DHT22;7016;48.172;8.058;2023-12-07T08:42:29;1.40;99.90
13892;DHT22;7016;48.172;8.058;2023-12-07T08:44:57;3.90;99.90
13892;DHT22;7016;48.172;8.058;2023-12-07T08:47:22;1.40;99.90
13892;DHT22;7016;48.172;8.058;2023-12-07T08:49:48;1.40;99.90
13892;DHT22;7016;48.172;8.058;2023-12-07T08:52:14;1.40;99.90
13892;DHT22;7016;48.172;8.058;2023-12-07T08:54:39;1.40;99.90
13892;DHT22;7016;48.172;8.058;2023-12-07T08:57:05;1.50;99.90
13892;DHT22;7016;48.172;8.058;2023-12-07T08:59:30;1.50;99.90
13892;DHT22;7016;48.172;8.058;2023-12-07T09:01:56;1.50;99.90
13892;DHT22;7016;48.172;8.058;2023-12-07T09:04:22;1.50;99.90
13892;DHT22;7016;48.172;8.058;2023-12-07T09:06:48;1.40;99.90
13892;DHT22;7016;48.172;8.058;2023-12-07T09:09:13;1.50;99.90
13892;DHT22;7016;48.172;8.058;2023-12-07T09:11:39;1.60;99.90
13892;DHT22;7016;48.172;8.058;2023-12-07T09:14:04;1.80;99.90
13892;DHT22;7016;48.172;8.058;2023-12-07T09:16:30;1.80;99.90
13892;DHT22;7016;48.172;8.058;2023-12-07T09:18:56;1.90;99.90
13892;DHT22;7016;48.172;8.058;2023-12-07T09:21:21;1.70;99.90
13892;DHT22;7016;48.172;8.058;2023-12-07T09:23:47;1.80;99.90
13892;DHT22;7016;48.172;8.058;2023-12-07T09:26:12;1.90;99.90
13892;DHT22;7016;48.172;8.058;2023-12-07T09:28:38;1.90;99.90
13892;DHT22;7016;48.172;8.058;2023-12-07T09:31:05;2.00;99.90
13892;DHT22;7016;48.172;8.058;2023-12-07T09:33:31;2.10;99.90
13892;DHT22;7016;48.172;8.058;2023-12-07T09:35:57;2.20;99.90
13892;DHT22;7016;48.172;8.058;2023-12-07T09:38:22;2.20;99.90
13892;DHT22;7016;48.172;8.058;2023-12-07T09:40:52;2.30;99.90
13892;DHT22;7016;48.172;8.058;2023-12-07T09:43:18;2.40;99.90
13892;DHT22;7016;48.172;8.058;2023-12-07T09:45:44;2.40;99.90
13892;DHT22;7016;48.172;8.058;2023-12-07T09:48:10;2.40;99.90
13892;DHT22;7016;48.172;8.058;2023-12-07T09:50:36;2.50;99.90
13892;DHT22;7016;48.172;8.058;2023-12-07T09:53:02;2.60;99.90
13892;DHT22;7016;48.172;8.058;2023-12-07T09:55:28;2.70;99.90
13892;DHT22;7016;48.172;8.058;2023-12-07T09:57:54;2.70;99.90
13892;DHT22;7016;48.172;8.058;2023-12-07T10:00:22;2.70;99.90
13892;DHT22;7016;48.172;8.058;2023-12-07T10:02:48;2.80;99.90
13892;DHT22;7016;48.172;8.058;2023-12-07T10:05:15;2.70;99.90
13892;DHT22;7016;48.172;8.058;2023-12-07T10:07:48;2.70;99.90
13892;DHT22;7016;48.172;8.058;2023-12-07T10:10:15;2.70;99.90
13892;DHT22;7016;48.172;8.058;2023-12-07T10:12:55;2.80;99.90
13892;DHT22;7016;48.172;8.058;2023-12-07T10:15:22;3.00;99.90
13892;DHT22;7016;48.172;8.058;2023-12-07T10:17:55;3.00;99.90
13892;DHT22;7016;48.172;8.058;2023-12-07T10:20:23;3.20;99.90
13892;DHT22;7016;48.172;8.058;2023-12-07T10:23:09;3.20;99.90
13892;DHT22;7016;48.172;8.058;2023-12-07T10:25:42;3.30;99.90
13892;DHT22;7016;48.172;8.058;2023-12-07T10:28:08;3.20;99.90
13892;DHT22;7016;48.172;8.058;2023-12-07T10:30:37;3.30;99.90
13892;DHT22;7016;48.172;8.058;2023-12-07T10:33:06;3.30;99.90
13892;DHT22;7016;48.172;8.058;2023-12-07T10:35:33;3.30;99.90
13892;DHT22;7016;48.172;8.058;2023-12-07T10:37:59;3.30;99.90
13892;DHT22;7016;48.172;8.058;2023-12-07T10:40:25;3.50;99.90
13892;DHT22;7016;48.172;8.058;2023-12-07T10:42:54;3.50;99.90
13892;DHT22;7016;48.172;8.058;2023-12-07T10:45:22;3.70;99.90
13892;DHT22;7016;48.172;8.058;2023-12-07T10:47:51;3.70;99.90
13892;DHT22;7016;48.172;8.058;2023-12-07T10:50:22;3.70;99.90
13892;DHT22;7016;48.172;8.058;2023-12-07T10:52:52;3.70;99.90
13892;DHT22;7016;48.172;8.058;2023-12-07T10:55:28;3.70;99.90
13892;DHT22;7016;48.172;8.058;2023-12-07T10:57:55;3.80;99.90
13892;DHT22;7016;48.172;8.058;2023-12-07T11:00:24;3.80;99.90
13892;DHT22;7016;48.172;8.058;2023-12-07T11:02:53;3.80;99.90
13892;DHT22;7016;48.172;8.058;2023-12-07T11:05:19;3.90;99.90
13892;DHT22;7016;48.172;8.058;2023-12-07T11:08:06;3.90;99.90
13892;DHT22;7016;48.172;8.058;2023-12-07T11:10:45;3.90;99.90
13892;DHT22;7016;48.172;8.058;2023-12-07T11:13:30;3.90;99.90
13892;DHT22;7016;48.172;8.058;2023-12-07T11:16:00;4.00;99.90
13892;DHT22;7016;48.172;8.058;2023-12-07T11:18:26;4.00;99.90
13892;DHT22;7016;48.172;8.058;2023-12-07T11:20:53;4.20;99.90
13892;DHT22;7016;48.172;8.058;2023-12-07T11:23:20;4.20;99.90
13892;DHT22;7016;48.172;8.058;2023-12-07T11:25:47;4.30;99.90
13892;DHT22;7016;48.172;8.058;2023-12-07T11:28:14;4.20;99.90
13892;DHT22;7016;48.172;8.058;2023-12-07T11:30:50;4.40;99.90
13892;DHT22;7016;48.172;8.058;2023-12-07T11:33:19;4.40;99.90
13892;DHT22;7016;48.172;8.058;2023-12-07T11:38:29;4.40;99.90
13892;DHT22;7016;48.172;8.058;2023-12-07T11:40:56;4.40;99.90
13892;DHT22;7016;48.172;8.058;2023-12-07T11:46:07;4.60;99.90
13892;DHT22;7016;48.172;8.058;2023-12-07T11:48:33;4.50;99.90
13892;DHT22;7016;48.172;8.058;2023-12-07T11:51:05;4.60;99.90
13892;DHT22;7016;48.172;8.058;2023-12-07T11:53:34;4.70;99.90
13892;DHT22;7016;48.172;8.058;2023-12-07T11:56:01;4.80;99.90
13892;DHT22;7016;48.172;8.058;2023-12-07T11:58:29;4.80;99.90
13892;DHT22;7016;48.172;8.058;2023-12-07T12:00:56;4.90;99.90
13892;DHT22;7016;48.172;8.058;2023-12-07T12:03:26;4.70;99.90
13892;DHT22;7016;48.172;8.058;2023-12-07T12:05:52;4.70;99.90
13892;DHT22;7016;48.172;8.058;2023-12-07T12:08:20;4.70;99.90
13892;DHT22;7016;48.172;8.058;2023-12-07T12:10:47;4.70;99.90
13892;DHT22;7016;48.172;8.058;2023-12-07T12:13:15;4.50;99.90
13892;DHT22;7016;48.172;8.058;2023-12-07T12:15:41;4.40;99.90
13892;DHT22;7016;48.172;8.058;2023-12-07T12:18:08;4.50;99.90
13892;DHT22;7016;48.172;8.058;2023-12-07T12:20:34;4.60;99.90
13892;DHT22;7016;48.172;8.058;2023-12-07T12:23:00;4.60;99.90
13892;DHT22;7016;48.172;8.058;2023-12-07T12:25:30;4.90;99.90
13892;DHT22;7016;48.172;8.058;2023-12-07T12:28:03;4.90;99.90
13892;DHT22;7016;48.172;8.058;2023-12-07T12:30:30;5.00;99.90
13892;DHT22;7016;48.172;8.058;2023-12-07T12:32:56;5.00;99.90
13892;DHT22;7016;48.172;8.058;2023-12-07T12:35:22;5.00;99.90
13892;DHT22;7016;48.172;8.058;2023-12-07T12:37:49;5.00;99.90
13892;DHT22;7016;48.172;8.058;2023-12-07T12:40:17;5.10;99.90
13892;DHT22;7016;48.172;8.058;2023-12-07T12:42:47;5.10;99.90
13892;DHT22;7016;48.172;8.058;2023-12-07T12:45:14;5.00;99.90
13892;DHT22;7016;48.172;8.058;2023-12-07T12:47:43;5.00;99.90
13892;DHT22;7016;48.172;8.058;2023-12-07T12:50:31;5.00;99.90
13892;DHT22;7016;48.172;8.058;2023-12-07T12:52:58;5.00;99.90
13892;DHT22;7016;48.172;8.058;2023-12-07T12:55:26;5.10;99.90
13892;DHT22;7016;48.172;8.058;2023-12-07T12:57:52;5.10;99.90
13892;DHT22;7016;48.172;8.058;2023-12-07T13:00:17;5.10;99.90
13892;DHT22;7016;48.172;8.058;2023-12-07T13:02:43;5.10;99.90
13892;DHT22;7016;48.172;8.058;2023-12-07T13:05:09;5.20;99.90
13892;DHT22;7016;48.172;8.058;2023-12-07T13:07:34;5.20;99.90
13892;DHT22;7016;48.172;8.058;2023-12-07T13:10:01;5.10;99.90
13892;DHT22;7016;48.172;8.058;2023-12-07T13:12:27;5.10;99.90
13892;DHT22;7016;48.172;8.058;2023-12-07T13:14:55;5.20;99.90
13892;DHT22;7016;48.172;8.058;2023-12-07T13:17:21;5.20;99.90
13892;DHT22;7016;48.172;8.058;2023-12-07T13:19:47;5.30;99.90
13892;DHT22;7016;48.172;8.058;2023-12-07T13:22:12;5.20;99.90
13892;DHT22;7016;48.172;8.058;2023-12-07T13:24:38;5.10;99.90
13892;DHT22;7016;48.172;8.058;2023-12-07T13:27:04;5.10;99.90
13892;DHT22;7016;48.172;8.058;2023-12-07T13:29:30;5.20;99.90
13892;DHT22;7016;48.172;8.058;2023-12-07T13:31:55;5.20;99.90
13892;DHT22;7016;48.172;8.058;2023-12-07T13:34:23;5.00;99.90
13892;DHT22;7016;48.172;8.058;2023-12-07T13:36:51;5.00;99.90
13892;DHT22;7016;48.172;8.058;2023-12-07T13:39:17;5.00;99.90
13892;DHT22;7016;48.172;8.058;2023-12-07T13:41:46;5.10;99.90
13892;DHT22;7016;48.172;8.058;2023-12-07T13:44:17;5.00;99.90
13892;DHT22;7016;48.172;8.058;2023-12-07T13:46:44;5.00;99.90
13892;DHT22;7016;48.172;8.058;2023-12-07T13:49:10;5.00;99.90
13892;DHT22;7016;48.172;8.058;2023-12-07T13:51:38;5.00;99.90
13892;DHT22;7016;48.172;8.058;2023-12-07T13:54:03;4.90;99.90
13892;DHT22;7016;48.172;8.058;2023-12-07T13:56:29;5.10;99.90
13892;DHT22;7016;48.172;8.058;2023-12-07T13:58:55;5.20;99.90
13892;DHT22;7016;48.172;8.058;2023-12-07T14:01:22;5.30;99.90
13892;DHT22;7016;48.172;8.058;2023-12-07T14:03:47;5.20;99.90
13892;DHT22;7016;48.172;8.058;2023-12-07T14:06:21;5.10;99.90
13892;DHT22;7016;48.172;8.058;2023-12-07T14:08:49;5.00;99.90
13892;DHT22;7016;48.172;8.058;2023-12-07T14:11:14;5.00;99.90
13892;DHT22;7016;48.172;8.058;2023-12-07T14:13:40;4.80;99.90
13892;DHT22;7016;48.172;8.058;2023-12-07T14:16:06;4.80;99.90
13892;DHT22;7016;48.172;8.058;2023-12-07T14:18:34;4.90;99.90
13892;DHT22;7016;48.172;8.058;2023-12-07T14:21:00;7.10;99.90
13892;DHT22;7016;48.172;8.058;2023-12-07T14:23:25;5.00;99.90
13892;DHT22;7016;48.172;8.058;2023-12-07T14:25:52;4.90;99.90
13892;DHT22;7016;48.172;8.058;2023-12-07T14:28:18;4.80;99.90
13892;DHT22;7016;48.172;8.058;2023-12-07T14:30:44;4.90;99.90
13892;DHT22;7016;48.172;8.058;2023-12-07T14:33:09;4.80;99.90
13892;DHT22;7016;48.172;8.058;2023-12-07T14:35:35;4.70;99.90
13892;DHT22;7016;48.172;8.058;2023-12-07T14:38:01;4.70;99.90
13892;DHT22;7016;48.172;8.058;2023-12-07T14:40:27;4.60;99.90
13892;DHT22;7016;48.172;8.058;2023-12-07T14:42:53;4.70;99.90
13892;DHT22;7016;48.172;8.058;2023-12-07T14:45:19;4.40;99.90
13892;DHT22;7016;48.172;8.058;2023-12-07T14:47:46;4.40;99.90
13892;DHT22;7016;48.172;8.058;2023-12-07T14:50:19;4.50;99.90
13892;DHT22;7016;48.172;8.058;2023-12-07T14:52:50;4.40;99.90
13892;DHT22;7016;48.172;8.058;2023-12-07T14:55:16;4.50;99.90
13892;DHT22;7016;48.172;8.058;2023-12-07T14:57:44;4.40;99.90
13892;DHT22;7016;48.172;8.058;2023-12-07T15:00:10;4.40;99.90
13892;DHT22;7016;48.172;8.058;2023-12-07T15:02:36;4.30;99.90
13892;DHT22;7016;48.172;8.058;2023-12-07T15:05:01;4.30;99.90
13892;DHT22;7016;48.172;8.058;2023-12-07T15:07:28;4.30;99.90
13892;DHT22;7016;48.172;8.058;2023-12-07T15:09:53;4.30;99.90
13892;DHT22;7016;48.172;8.058;2023-12-07T15:12:19;4.20;99.90
13892;DHT22;7016;48.172;8.058;2023-12-07T15:14:45;4.20;99.90
13892;DHT22;7016;48.172;8.058;2023-12-07T15:17:11;4.20;99.90
13892;DHT22;7016;48.172;8.058;2023-12-07T15:19:37;4.20;99.90
13892;DHT22;7016;48.172;8.058;2023-12-07T15:22:03;4.20;99.90
13892;DHT22;7016;48.172;8.058;2023-12-07T15:24:29;4.20;99.90
13892;DHT22;7016;48.172;8.058;2023-12-07T15:26:55;4.10;99.90
13892;DHT22;7016;48.172;8.058;2023-12-07T15:29:21;4.20;99.90
13892;DHT22;7016;48.172;8.058;2023-12-07T15:31:46;4.10;99.90
13892;DHT22;7016;48.172;8.058;2023-12-07T15:34:12;4.10;99.90
13892;DHT22;7016;48.172;8.058;2023-12-07T15:36:38;4.10;99.90
13892;DHT22;7016;48.172;8.058;2023-12-07T15:39:04;4.00;99.90
13892;DHT22;7016;48.172;8.058;2023-12-07T15:41:29;3.90;99.90
13892;DHT22;7016;48.172;8.058;2023-12-07T15:43:55;3.90;99.90
13892;DHT22;7016;48.172;8.058;2023-12-07T15:46:21;3.90;99.90
13892;DHT22;7016;48.172;8.058;2023-12-07T15:48:47;3.90;99.90
13892;DHT22;7016;48.172;8.058;2023-12-07T15:51:12;3.90;99.90
13892;DHT22;7016;48.172;8.058;2023-12-07T15:53:38;3.90;99.90
13892;DHT22;7016;48.172;8.058;2023-12-07T15:56:04;4.00;99.90
13892;DHT22;7016;48.172;8.058;2023-12-07T15:58:30;4.00;99.90
13892;DHT22;7016;48.172;8.058;2023-12-07T16:00:56;3.90;99.90
13892;DHT22;7016;48.172;8.058;2023-12-07T16:03:21;3.70;99.90
13892;DHT22;7016;48.172;8.058;2023-12-07T16:05:47;3.70;99.90